METAR Data
IDs: Format: Raw Decoded Include TAF

Data at: 0307 UTC 25 Feb 2021

LRBO 242300Z 22006KT 2000 BR SCT080 BKN100 03/02 Q1035 YLO AMB